Time;durP1;ratioP1;P1;durP2;ratioP2;P2;SDS_P1;SDS_P2;PMS_P1;PMS_P2;Temp;Humidity;BMP_temperature;BMP_pressure;BME280_temperature;BME280_humidity;BME280_pressure;Samples;Min_cycle;Max_cycle;Signal;HPM_P1;HPM_P2
2021/09/09 00:00:13;;;;;;;;;28.75;25.50;;;;;24.70;84.26;100675.38;5100645;27;45423;-57
2021/09/09 00:02:39;;;;;;;;;27.75;27.75;;;;;24.73;83.97;100665.31;5101045;27;45230;-57
2021/09/09 00:05:05;;;;;;;;;26.00;24.75;;;;;24.77;84.21;100666.69;5100800;27;45399;-57
2021/09/09 00:07:30;;;;;;;;;26.00;24.25;;;;;24.82;84.10;100671.59;5098183;27;46068;-57
2021/09/09 00:09:56;;;;;;;;;27.75;27.25;;;;;24.86;84.01;100678.38;5098105;27;45266;-58
2021/09/09 00:12:21;;;;;;;;;27.75;23.50;;;;;24.91;83.52;100680.59;5098426;27;45381;-57
2021/09/09 00:14:46;;;;;;;;;31.25;28.75;;;;;24.88;83.74;100676.41;5098057;27;45361;-57
2021/09/09 00:17:12;;;;;;;;;27.75;26.75;;;;;24.84;84.02;100686.47;5095718;27;46204;-57
2021/09/09 00:19:37;;;;;;;;;30.25;25.50;;;;;24.84;83.62;100694.44;5098214;27;45415;-57
2021/09/09 00:22:03;;;;;;;;;30.75;27.25;;;;;24.82;83.28;100676.91;5100781;27;45425;-58
2021/09/09 00:24:28;;;;;;;;;25.75;23.75;;;;;24.85;83.13;100676.69;5100478;27;45560;-58
2021/09/09 00:26:56;;;;;;;;;24.75;21.50;;;;;24.83;83.17;100673.31;5100576;27;46191;-58
2021/09/09 00:29:21;;;;;;;;;28.00;24.75;;;;;24.82;82.55;100671.59;5099671;27;45443;-58
2021/09/09 00:31:46;;;;;;;;;29.25;24.25;;;;;24.81;82.74;100668.09;5100674;27;45476;-58
2021/09/09 00:34:12;;;;;;;;;27.25;21.75;;;;;24.78;82.97;100667.53;5100406;27;45236;-58
2021/09/09 00:36:37;;;;;;;;;24.50;22.75;;;;;24.74;82.98;100652.84;5100431;27;46187;-58
2021/09/09 00:39:03;;;;;;;;;24.00;22.00;;;;;24.68;82.70;100645.44;5081936;27;45893;-58
2021/09/09 00:41:30;;;;;;;;;23.00;21.75;;;;;24.62;83.31;100643.28;5100575;27;45299;-58
2021/09/09 00:43:55;;;;;;;;;30.00;25.50;;;;;24.56;83.36;100647.34;5099910;27;45462;-58
2021/09/09 00:46:24;;;;;;;;;26.75;25.75;;;;;24.53;84.12;100648.44;5100078;27;45934;-58
2021/09/09 00:48:50;;;;;;;;;23.75;22.00;;;;;24.54;83.57;100654.59;5095539;27;45620;-58
2021/09/09 00:51:16;;;;;;;;;26.00;20.25;;;;;24.51;83.76;100657.53;5100366;27;45359;-58
2021/09/09 00:53:42;;;;;;;;;29.75;21.00;;;;;24.49;83.69;100660.31;5100384;27;45414;-58
2021/09/09 00:56:08;;;;;;;;;24.25;23.50;;;;;24.43;83.50;100652.06;5100221;27;45367;-57
2021/09/09 00:58:36;;;;;;;;;24.75;22.00;;;;;24.38;83.70;100655.09;5100092;27;45352;-57
2021/09/09 01:01:01;;;;;;;;;26.50;24.25;;;;;24.35;84.85;100660.66;5100099;27;45169;-57
2021/09/09 01:03:26;;;;;;;;;25.00;23.50;;;;;24.32;83.80;100671.56;5101509;27;45339;-57
2021/09/09 01:05:52;;;;;;;;;26.25;21.50;;;;;24.28;84.16;100672.78;5085321;27;47453;-57
2021/09/09 01:08:17;;;;;;;;;29.00;24.50;;;;;24.23;84.20;100669.69;5103296;27;45244;-57
2021/09/09 01:10:42;;;;;;;;;24.75;23.50;;;;;24.12;84.35;100659.97;5103805;27;45310;-57
2021/09/09 01:13:09;;;;;;;;;27.00;24.25;;;;;24.05;84.70;100672.09;5103297;27;45330;-57
2021/09/09 01:15:42;;;;;;;;;25.25;20.00;;;;;24.02;84.65;100679.44;5103511;27;45488;-57
2021/09/09 01:18:11;;;;;;;;;21.75;20.00;;;;;24.02;84.57;100672.31;5101497;27;45707;-57
2021/09/09 01:20:37;;;;;;;;;24.00;20.75;;;;;24.04;85.08;100674.88;5104329;27;45527;-57
2021/09/09 01:23:03;;;;;;;;;29.00;23.75;;;;;24.07;84.82;100680.75;5103615;27;45222;-57
2021/09/09 01:25:29;;;;;;;;;24.50;23.25;;;;;24.07;84.63;100678.09;5084981;27;47320;-57
2021/09/09 01:27:54;;;;;;;;;29.75;25.00;;;;;24.05;84.62;100677.41;5103111;27;45529;-57
2021/09/09 01:30:19;;;;;;;;;25.25;24.50;;;;;24.09;84.52;100680.63;5103079;27;45425;-57
2021/09/09 01:32:45;;;;;;;;;26.00;25.00;;;;;24.01;85.32;100681.25;5103486;27;45404;-58
2021/09/09 01:35:10;;;;;;;;;26.50;24.75;;;;;23.96;85.10;100676.34;5103275;27;46441;-58
2021/09/09 01:37:36;;;;;;;;;27.75;26.50;;;;;23.94;85.78;100678.28;5103354;27;45425;-58
2021/09/09 01:40:01;;;;;;;;;26.75;24.00;;;;;23.87;85.38;100674.47;5103407;27;45283;-58
2021/09/09 01:42:27;;;;;;;;;25.50;22.75;;;;;23.88;85.75;100681.47;5101228;27;45441;-59
2021/09/09 01:44:52;;;;;;;;;23.50;20.25;;;;;23.89;85.49;100685.81;5100479;27;45651;-61
2021/09/09 01:47:17;;;;;;;;;27.50;26.00;;;;;23.95;85.79;100697.72;5102921;27;45493;-60
2021/09/09 01:49:43;;;;;;;;;27.25;25.75;;;;;24.01;85.87;100697.19;5102713;27;45327;-58
2021/09/09 01:52:09;;;;;;;;;25.00;24.00;;;;;24.05;85.76;100703.09;5101872;27;45524;-59
2021/09/09 01:54:34;;;;;;;;;26.50;24.75;;;;;24.00;85.56;100698.16;5103025;27;46168;-57
2021/09/09 01:56:59;;;;;;;;;28.25;24.75;;;;;23.97;85.52;100691.31;5103126;27;45309;-58
2021/09/09 01:59:25;;;;;;;;;25.25;23.75;;;;;23.94;85.65;100698.69;5102258;27;45307;-58
2021/09/09 02:01:50;;;;;;;;;28.50;23.50;;;;;23.90;86.17;100692.81;5100645;27;45630;-58
2021/09/09 02:04:15;;;;;;;;;31.00;23.75;;;;;23.89;85.56;100692.94;5100476;27;45958;-59
2021/09/09 02:06:41;;;;;;;;;26.50;24.75;;;;;23.91;86.28;100705.09;5100304;27;45377;-58
2021/09/09 02:09:06;;;;;;;;;30.00;26.25;;;;;23.92;85.88;100703.28;5099841;27;45662;-58
2021/09/09 02:11:32;;;;;;;;;27.50;24.25;;;;;23.86;86.45;100699.34;5099392;27;45391;-57
2021/09/09 02:13:58;;;;;;;;;25.00;22.00;;;;;23.85;86.04;100684.38;5079909;27;48240;-57
2021/09/09 02:16:23;;;;;;;;;27.00;22.00;;;;;23.88;86.14;100683.28;5100688;27;45366;-57
2021/09/09 02:18:49;;;;;;;;;32.50;26.25;;;;;23.85;85.71;100687.03;5101851;27;45134;-57
2021/09/09 02:21:14;;;;;;;;;29.50;23.00;;;;;23.89;85.61;100695.59;5102015;27;45208;-57
2021/09/09 02:23:40;;;;;;;;;28.00;24.75;;;;;23.90;85.71;100692.81;5101689;27;46393;-57
2021/09/09 02:26:05;;;;;;;;;27.00;22.75;;;;;23.94;86.32;100696.03;5101367;27;45241;-58
2021/09/09 02:28:31;;;;;;;;;25.75;20.75;;;;;23.91;86.13;100691.81;5101268;27;45435;-57
2021/09/09 02:30:57;;;;;;;;;25.50;23.00;;;;;23.87;86.12;100689.56;5100922;27;45342;-57
2021/09/09 02:33:22;;;;;;;;;29.00;26.00;;;;;23.82;85.67;100694.38;5101402;27;45500;-57
2021/09/09 02:35:48;;;;;;;;;28.25;26.25;;;;;23.77;86.79;100700.09;5101112;27;45296;-57
2021/09/09 02:38:13;;;;;;;;;25.50;23.75;;;;;23.74;85.68;100692.41;5101522;27;45504;-58
2021/09/09 02:40:39;;;;;;;;;27.75;26.50;;;;;23.75;86.01;100687.94;5101143;27;45365;-57
2021/09/09 02:43:05;;;;;;;;;26.25;24.00;;;;;23.81;85.96;100682.94;5100911;27;46678;-57
2021/09/09 02:45:30;;;;;;;;;28.75;24.75;;;;;23.89;85.50;100684.97;5100675;27;45328;-57
2021/09/09 02:47:56;;;;;;;;;26.25;24.25;;;;;23.95;85.55;100684.44;5101384;27;45331;-57
2021/09/09 02:50:22;;;;;;;;;36.25;28.25;;;;;23.93;85.17;100689.88;5100781;27;45472;-56
2021/09/09 02:52:47;;;;;;;;;28.25;27.75;;;;;23.87;85.41;100682.44;5101060;27;45316;-56
2021/09/09 02:55:13;;;;;;;;;32.50;26.25;;;;;23.83;85.86;100686.34;5100648;27;45230;-56
2021/09/09 02:57:39;;;;;;;;;36.00;27.50;;;;;23.78;86.01;100685.84;5100853;27;45299;-56
2021/09/09 03:00:06;;;;;;;;;28.75;26.25;;;;;23.76;85.78;100689.59;5100375;27;45228;-56
2021/09/09 03:02:31;;;;;;;;;33.00;27.75;;;;;23.73;85.54;100689.88;5100683;27;45505;-56
2021/09/09 03:04:57;;;;;;;;;28.25;26.50;;;;;23.71;85.68;100690.00;5100520;27;45510;-56
2021/09/09 03:07:22;;;;;;;;;31.00;26.25;;;;;23.70;85.65;100692.78;5082237;27;45260;-56
2021/09/09 03:10:30;;;;;;;;;33.50;27.25;;;;;23.64;86.23;100689.69;5114413;27;45401;-58
2021/09/09 03:12:56;;;;;;;;;30.00;25.75;;;;;23.63;85.81;100677.38;5096766;27;45313;-58
2021/09/09 03:15:21;;;;;;;;;29.00;25.00;;;;;23.64;85.83;100681.72;5097237;27;45333;-58
2021/09/09 03:17:47;;;;;;;;;29.25;26.50;;;;;23.59;85.54;100673.28;5097156;27;45231;-57
2021/09/09 03:20:12;;;;;;;;;32.50;29.25;;;;;23.56;85.55;100677.97;5097093;27;46197;-57
2021/09/09 03:22:38;;;;;;;;;32.50;26.00;;;;;23.55;85.71;100686.91;5095290;27;45211;-57
2021/09/09 03:25:04;;;;;;;;;34.00;32.00;;;;;23.56;85.95;100688.56;5096072;27;45405;-57
2021/09/09 03:27:29;;;;;;;;;33.75;29.50;;;;;23.49;86.38;100690.06;5095154;27;46147;-57
2021/09/09 03:29:54;;;;;;;;;34.75;30.25;;;;;23.43;86.52;100685.28;5096770;27;45344;-58
2021/09/09 03:32:20;;;;;;;;;31.00;28.75;;;;;23.34;86.90;100678.88;5096775;27;45278;-57
2021/09/09 03:34:45;;;;;;;;;26.00;24.50;;;;;23.33;86.83;100677.22;5096939;27;45222;-56
2021/09/09 03:37:11;;;;;;;;;25.75;23.75;;;;;23.29;87.16;100684.56;5096668;27;45440;-56
2021/09/09 03:39:36;;;;;;;;;33.50;30.00;;;;;23.28;86.80;100682.06;5096781;27;45290;-56
2021/09/09 03:42:01;;;;;;;;;30.25;27.25;;;;;23.23;87.10;100673.63;5096329;27;45558;-56
2021/09/09 03:44:27;;;;;;;;;38.75;30.75;;;;;23.19;87.66;100669.53;5096580;27;45330;-55
2021/09/09 03:46:52;;;;;;;;;29.75;27.00;;;;;23.16;87.09;100665.31;5096499;27;45290;-56
2021/09/09 03:49:17;;;;;;;;;31.50;27.75;;;;;23.14;87.29;100667.25;5096531;27;45464;-56
2021/09/09 03:51:43;;;;;;;;;33.00;27.00;;;;;23.16;86.66;100669.78;5096478;27;45457;-57
2021/09/09 03:54:08;;;;;;;;;31.75;28.75;;;;;23.21;86.65;100667.59;5095139;27;45485;-57
2021/09/09 03:56:34;;;;;;;;;27.25;25.25;;;;;23.24;86.41;100662.91;5094082;27;45431;-58
2021/09/09 03:58:59;;;;;;;;;31.00;28.25;;;;;23.30;86.62;100665.03;5093575;27;46407;-58
2021/09/09 04:01:24;;;;;;;;;31.00;28.25;;;;;23.35;86.14;100667.31;5094769;27;45335;-57
2021/09/09 04:03:50;;;;;;;;;30.75;29.25;;;;;23.37;85.73;100676.81;5096415;27;45336;-58
2021/09/09 04:06:15;;;;;;;;;34.00;30.50;;;;;23.37;85.89;100671.53;5096085;27;45429;-58
2021/09/09 04:08:40;;;;;;;;;32.00;28.75;;;;;23.40;86.07;100681.03;5095913;27;46578;-57
2021/09/09 04:11:06;;;;;;;;;32.00;28.50;;;;;23.40;86.00;100674.88;5096145;27;45340;-57
2021/09/09 04:13:31;;;;;;;;;36.75;29.75;;;;;23.37;85.59;100668.03;5094491;27;45299;-57
2021/09/09 04:15:56;;;;;;;;;35.75;29.50;;;;;23.37;86.08;100670.69;5096020;27;45226;-57
2021/09/09 04:18:22;;;;;;;;;53.25;41.00;;;;;23.35;85.51;100668.16;5095979;27;45677;-56
2021/09/09 04:20:47;;;;;;;;;33.75;30.00;;;;;23.32;85.88;100668.41;5087170;27;45385;-56
2021/09/09 04:23:13;;;;;;;;;36.25;29.50;;;;;23.33;85.44;100672.75;5082440;27;45406;-56
2021/09/09 04:25:38;;;;;;;;;28.75;27.25;;;;;23.34;85.80;100657.69;5082266;28;45278;-60
2021/09/09 04:28:04;;;;;;;;;36.00;29.75;;;;;23.35;85.92;100657.53;5081717;27;46141;-56
2021/09/09 04:30:29;;;;;;;;;31.75;25.50;;;;;23.37;85.44;100654.75;5081931;28;45217;-56
2021/09/09 04:32:55;;;;;;;;;31.75;26.25;;;;;23.29;85.74;100647.44;5082249;27;45275;-56
2021/09/09 04:35:20;;;;;;;;;38.00;29.50;;;;;23.23;85.58;100647.13;5080193;28;45381;-56
2021/09/09 04:37:46;;;;;;;;;31.50;27.50;;;;;23.15;85.75;100644.25;5080113;27;45605;-60
2021/09/09 04:40:12;;;;;;;;;37.00;30.50;;;;;23.08;87.00;100643.06;5079263;27;45394;-60
2021/09/09 04:42:37;;;;;;;;;32.50;30.25;;;;;23.02;87.32;100644.38;5081718;28;45504;-57
2021/09/09 04:45:04;;;;;;;;;30.00;28.00;;;;;23.02;86.93;100649.69;5078387;27;45443;-56
2021/09/09 04:47:29;;;;;;;;;30.75;30.00;;;;;22.99;87.06;100637.53;5081720;27;45387;-56
2021/09/09 04:49:54;;;;;;;;;35.75;29.50;;;;;23.00;86.41;100633.91;5081757;27;45243;-57
2021/09/09 04:52:20;;;;;;;;;33.75;28.25;;;;;23.02;86.49;100633.78;5081341;27;45320;-59
2021/09/09 04:54:45;;;;;;;;;31.75;29.25;;;;;23.00;86.95;100633.06;5081483;27;45554;-59
2021/09/09 04:57:12;;;;;;;;;45.25;36.25;;;;;23.00;86.75;100633.91;5081164;27;46389;-58
2021/09/09 04:59:38;;;;;;;;;30.00;29.25;;;;;23.01;86.74;100629.44;5081248;27;45599;-59
2021/09/09 05:02:03;;;;;;;;;39.25;31.75;;;;;23.05;86.24;100649.47;5081711;27;45515;-61
2021/09/09 05:04:29;;;;;;;;;37.25;30.25;;;;;23.06;86.58;100651.16;5081462;28;45258;-69
2021/09/09 05:06:54;;;;;;;;;36.50;31.00;;;;;23.05;86.16;100654.75;5078467;27;45635;-65
2021/09/09 05:09:19;;;;;;;;;32.75;28.75;;;;;23.09;86.19;100650.06;5080533;27;45513;-59
2021/09/09 05:11:45;;;;;;;;;41.00;32.00;;;;;23.07;85.85;100647.53;5080943;27;45348;-59
2021/09/09 05:14:10;;;;;;;;;29.25;26.75;;;;;23.07;86.11;100642.22;5079887;27;45480;-58
2021/09/09 05:16:36;;;;;;;;;36.00;30.25;;;;;23.05;86.01;100636.22;5080084;27;47006;-57
2021/09/09 05:19:01;;;;;;;;;37.75;30.00;;;;;23.04;86.42;100634.53;5079599;27;45326;-59
2021/09/09 05:21:26;;;;;;;;;35.50;31.25;;;;;23.02;86.20;100633.78;5080013;27;45446;-58
2021/09/09 05:23:52;;;;;;;;;35.25;29.00;;;;;23.03;86.35;100643.44;5078799;27;45688;-57
2021/09/09 05:26:17;;;;;;;;;36.75;31.75;;;;;23.03;86.51;100643.44;5078312;27;46510;-61
2021/09/09 05:28:43;;;;;;;;;37.00;30.50;;;;;23.02;86.33;100641.72;5078163;28;45390;-58
2021/09/09 05:31:08;;;;;;;;;32.75;29.50;;;;;23.02;86.15;100649.69;5077831;27;45457;-56
2021/09/09 05:33:33;;;;;;;;;37.75;31.00;;;;;22.98;86.50;100653.56;5078447;27;45639;-55
2021/09/09 05:35:59;;;;;;;;;29.25;27.00;;;;;22.98;86.51;100656.22;5079467;27;45605;-57
2021/09/09 05:38:25;;;;;;;;;35.75;29.25;;;;;22.95;86.68;100657.28;5079608;27;45343;-58
2021/09/09 05:40:50;;;;;;;;;40.00;35.25;;;;;22.93;86.84;100667.19;5080015;27;45465;-58
2021/09/09 05:43:19;;;;;;;;;41.00;30.25;;;;;22.91;87.25;100665.63;5079737;27;45513;-58
2021/09/09 05:45:45;;;;;;;;;41.75;31.50;;;;;22.90;87.25;100677.19;5080099;27;47437;-57
2021/09/09 05:48:10;;;;;;;;;42.00;33.00;;;;;22.93;87.92;100666.34;5080714;27;45414;-58
2021/09/09 05:50:35;;;;;;;;;42.75;33.50;;;;;23.07;88.28;100674.03;5080920;27;45340;-59
2021/09/09 05:53:01;;;;;;;;;34.25;30.50;;;;;23.24;87.43;100675.31;5080731;27;45172;-56
2021/09/09 05:55:27;;;;;;;;;36.00;32.50;;;;;23.36;87.06;100683.09;5080424;28;46293;-60
2021/09/09 05:57:52;;;;;;;;;38.00;32.75;;;;;23.42;86.86;100697.66;5080396;27;45479;-61
2021/09/09 06:00:17;;;;;;;;;34.50;32.00;;;;;23.43;86.81;100693.22;5080165;27;45279;-76
2021/09/09 06:02:46;;;;;;;;;40.00;32.00;;;;;23.44;87.14;100694.91;5080270;27;45491;-70
2021/09/09 06:05:13;;;;;;;;;42.75;33.25;;;;;23.49;86.78;100695.38;5080243;27;46086;-61
2021/09/09 06:07:39;;;;;;;;;37.00;31.75;;;;;23.52;86.39;100692.47;5080201;27;45256;-71
2021/09/09 06:10:05;;;;;;;;;40.75;32.25;;;;;23.62;86.54;100701.34;5079748;27;45168;-66
2021/09/09 06:12:31;;;;;;;;;36.50;29.50;;;;;23.66;85.50;100714.28;5079747;28;45433;-56
2021/09/09 06:14:57;;;;;;;;;38.75;33.00;;;;;23.63;85.23;100709.22;5079697;27;46445;-56
2021/09/09 06:17:22;;;;;;;;;38.25;30.25;;;;;23.58;85.40;100703.44;5079802;27;45335;-56
2021/09/09 06:19:48;;;;;;;;;33.75;31.50;;;;;23.47;85.42;100703.44;5079888;27;45345;-57
2021/09/09 06:22:14;;;;;;;;;42.50;34.50;;;;;23.43;85.50;100709.16;5078182;28;45475;-57
2021/09/09 06:24:39;;;;;;;;;36.00;31.00;;;;;23.33;85.64;100707.22;5080191;27;46408;-56
2021/09/09 06:27:04;;;;;;;;;42.75;35.00;;;;;23.27;85.58;100705.06;5079323;27;45379;-56
2021/09/09 06:29:30;;;;;;;;;46.75;35.75;;;;;23.23;85.50;100716.06;5079209;27;45345;-56
2021/09/09 06:31:55;;;;;;;;;44.50;35.00;;;;;23.16;85.88;100712.19;5079382;27;45378;-56
2021/09/09 06:34:21;;;;;;;;;45.50;34.25;;;;;23.15;85.54;100721.97;5078937;28;45402;-56
2021/09/09 06:36:46;;;;;;;;;41.75;33.50;;;;;23.16;85.93;100723.66;5079221;27;45397;-57
2021/09/09 06:39:14;;;;;;;;;43.25;34.50;;;;;23.20;85.64;100711.81;5079394;27;45419;-57
2021/09/09 06:41:44;;;;;;;;;44.50;35.25;;;;;23.26;85.38;100715.81;5079152;28;45392;-57
2021/09/09 06:44:09;;;;;;;;;39.25;31.25;;;;;23.36;85.43;100725.53;5078422;27;46229;-57
2021/09/09 06:46:35;;;;;;;;;45.50;35.50;;;;;23.46;84.86;100732.75;5079706;27;45457;-57
2021/09/09 06:49:00;;;;;;;;;43.75;34.50;;;;;23.56;84.75;100734.56;5079587;27;45450;-57
2021/09/09 06:51:25;;;;;;;;;42.75;34.75;;;;;23.62;84.28;100738.50;5079644;27;45459;-57
2021/09/09 06:53:51;;;;;;;;;41.00;33.00;;;;;23.68;84.27;100738.03;5078198;28;45724;-56
2021/09/09 06:56:16;;;;;;;;;42.50;35.00;;;;;23.67;84.12;100742.47;5079726;27;45365;-56
2021/09/09 06:58:41;;;;;;;;;48.25;38.00;;;;;23.60;84.36;100738.63;5079465;27;45566;-56
2021/09/09 07:01:07;;;;;;;;;45.50;34.75;;;;;23.61;84.39;100742.97;5079301;27;45372;-56
2021/09/09 07:03:32;;;;;;;;;50.00;36.75;;;;;23.69;83.86;100738.88;5079493;27;45292;-56
2021/09/09 07:05:58;;;;;;;;;44.50;36.25;;;;;23.72;83.51;100743.91;5079755;27;45238;-56
2021/09/09 07:08:23;;;;;;;;;44.75;32.50;;;;;23.69;83.60;100746.81;5079026;27;45412;-56
2021/09/09 07:10:48;;;;;;;;;37.75;33.00;;;;;23.72;83.79;100741.25;5079432;27;45221;-56
2021/09/09 07:13:17;;;;;;;;;40.00;33.25;;;;;23.79;83.41;100743.25;5078783;27;46217;-57
2021/09/09 07:15:43;;;;;;;;;46.75;34.75;;;;;23.84;82.79;100745.56;5077684;28;45480;-57
2021/09/09 07:18:08;;;;;;;;;39.25;34.50;;;;;23.78;83.09;100741.59;5079668;27;45326;-57
2021/09/09 07:20:34;;;;;;;;;37.25;32.25;;;;;23.75;82.79;100744.50;5077908;27;45514;-57
2021/09/09 07:22:59;;;;;;;;;44.00;34.50;;;;;23.66;83.29;100742.63;5079120;27;47121;-57
2021/09/09 07:25:25;;;;;;;;;45.75;35.25;;;;;23.64;83.17;100736.59;5079009;27;45456;-57
2021/09/09 07:27:50;;;;;;;;;43.00;33.00;;;;;23.66;83.72;100734.66;5078485;27;45791;-60
2021/09/09 07:30:15;;;;;;;;;45.50;34.50;;;;;23.72;83.10;100741.25;5078168;27;45598;-57
2021/09/09 07:32:41;;;;;;;;;42.00;34.75;;;;;23.80;82.98;100742.28;5079073;27;45321;-57
2021/09/09 07:35:06;;;;;;;;;46.00;33.25;;;;;23.86;82.85;100746.28;5079086;27;45394;-56
2021/09/09 07:37:32;;;;;;;;;46.00;36.00;;;;;23.83;82.36;100736.75;5079287;27;45288;-57
2021/09/09 07:39:57;;;;;;;;;41.50;33.50;;;;;23.84;82.48;100742.91;5079039;27;45537;-57
2021/09/09 07:42:23;;;;;;;;;36.75;33.25;;;;;23.90;83.03;100748.53;5078543;27;45551;-57
2021/09/09 07:44:49;;;;;;;;;38.75;31.00;;;;;23.94;82.63;100746.47;5078478;27;45253;-57
2021/09/09 07:47:15;;;;;;;;;41.50;34.50;;;;;23.91;81.90;100747.56;5079058;27;45149;-57
2021/09/09 07:49:40;;;;;;;;;45.25;32.50;;;;;23.90;82.50;100747.69;5078893;28;45452;-57
2021/09/09 07:52:05;;;;;;;;;41.75;32.75;;;;;23.84;81.94;100754.38;5079138;27;46187;-57
2021/09/09 07:54:31;;;;;;;;;34.00;28.00;;;;;23.82;82.20;100750.97;5079043;28;45235;-57
2021/09/09 07:56:56;;;;;;;;;37.75;30.25;;;;;23.83;81.78;100752.69;5081938;27;45315;-56
2021/09/09 07:59:24;;;;;;;;;41.75;31.25;;;;;23.85;82.32;100748.09;5081967;27;45337;-57
2021/09/09 08:01:49;;;;;;;;;37.75;32.25;;;;;23.88;81.98;100753.13;5082156;28;45605;-56
2021/09/09 08:04:17;;;;;;;;;35.75;30.00;;;;;23.89;81.69;100746.84;5082164;27;45291;-57
2021/09/09 08:06:46;;;;;;;;;55.75;42.00;;;;;23.93;81.95;100748.28;5082124;27;45338;-57
2021/09/09 08:09:12;;;;;;;;;35.50;31.50;;;;;24.00;81.84;100753.06;5081937;27;45236;-57
2021/09/09 08:11:38;;;;;;;;;37.50;30.00;;;;;24.08;81.29;100745.31;5082087;27;45551;-57
2021/09/09 08:14:04;;;;;;;;;42.00;31.50;;;;;24.20;81.16;100747.78;5080279;28;45406;-57
2021/09/09 08:16:30;;;;;;;;;42.00;32.25;;;;;24.32;80.65;100747.75;5081909;27;45249;-57
2021/09/09 08:18:55;;;;;;;;;41.00;32.25;;;;;24.36;79.96;100752.66;5081868;27;45268;-57
2021/09/09 08:21:21;;;;;;;;;43.75;32.75;;;;;24.31;80.24;100751.38;5080361;27;46094;-57
2021/09/09 08:23:46;;;;;;;;;53.25;39.25;;;;;24.36;80.06;100755.31;5082029;27;45337;-57
2021/09/09 08:26:11;;;;;;;;;51.75;37.50;;;;;24.38;79.75;100768.47;5082148;27;45396;-57
2021/09/09 08:28:38;;;;;;;;;47.50;36.50;;;;;24.38;79.61;100763.16;5081627;27;45259;-57
2021/09/09 08:31:04;;;;;;;;;31.75;27.50;;;;;24.37;79.36;100766.78;5080360;27;47107;-57
2021/09/09 08:33:30;;;;;;;;;38.00;30.75;;;;;24.33;79.28;100758.25;5081983;27;45256;-58
2021/09/09 08:35:55;;;;;;;;;38.75;31.00;;;;;24.27;78.88;100770.19;5082026;28;45264;-57
2021/09/09 08:38:21;;;;;;;;;47.25;36.25;;;;;24.11;79.40;100761.00;5082215;27;45491;-57
2021/09/09 08:40:50;;;;;;;;;39.50;32.50;;;;;24.07;79.60;100771.03;5081359;27;45502;-56
2021/09/09 08:43:16;;;;;;;;;48.25;36.75;;;;;23.99;79.66;100773.47;5081270;28;45350;-57
2021/09/09 08:45:42;;;;;;;;;47.75;34.00;;;;;24.03;80.37;100774.91;5081747;27;45405;-56
2021/09/09 08:48:08;;;;;;;;;39.25;31.50;;;;;24.11;79.44;100768.97;5081340;27;45420;-56
2021/09/09 08:50:34;;;;;;;;;37.25;32.25;;;;;24.16;79.19;100764.09;5080567;27;47366;-57
2021/09/09 08:53:01;;;;;;;;;38.00;31.75;;;;;24.22;79.61;100764.41;5081451;27;45231;-57
2021/09/09 08:55:27;;;;;;;;;33.00;29.00;;;;;24.34;79.73;100769.72;5081799;27;45285;-57
2021/09/09 08:57:54;;;;;;;;;44.50;32.00;;;;;24.46;79.45;100777.50;5081230;27;45444;-57
2021/09/09 09:00:19;;;;;;;;;40.25;32.75;;;;;24.54;78.55;100777.66;5081219;27;45327;-57
2021/09/09 09:02:55;;;;;;;;;42.50;31.50;;;;;24.58;78.63;100773.75;5081393;27;45364;-57
2021/09/09 09:05:22;;;;;;;;;28.50;26.75;;;;;24.56;77.74;100781.03;5081624;27;45443;-56
2021/09/09 09:07:56;;;;;;;;;34.75;29.00;;;;;24.45;77.82;100786.44;5080760;28;45458;-57
2021/09/09 09:10:21;;;;;;;;;29.50;28.75;;;;;24.27;78.03;100783.47;5080453;27;45378;-57
2021/09/09 09:12:48;;;;;;;;;34.75;30.50;;;;;24.17;78.67;100782.56;5080650;27;45172;-57
2021/09/09 09:15:21;;;;;;;;;33.50;28.00;;;;;24.13;78.95;100782.94;5080999;27;45424;-57
2021/09/09 09:18:03;;;;;;;;;31.50;28.50;;;;;24.15;79.00;100783.66;5081323;27;45207;-57
2021/09/09 09:20:36;;;;;;;;;32.25;26.50;;;;;24.10;78.65;100784.06;5080251;27;45638;-55
2021/09/09 09:23:19;;;;;;;;;36.25;30.00;;;;;24.03;78.89;100790.84;5077564;28;45619;-57
2021/09/09 09:25:52;;;;;;;;;31.50;27.25;;;;;24.07;79.30;100780.81;5081054;28;45354;-57
2021/09/09 09:28:41;;;;;;;;;33.75;28.25;;;;;24.22;79.60;100782.16;5080745;27;45463;-56
2021/09/09 09:31:07;;;;;;;;;43.50;30.25;;;;;24.34;79.09;100783.00;5077281;28;45741;-57
2021/09/09 09:33:42;;;;;;;;;31.25;27.50;;;;;24.34;78.95;100778.53;5080802;27;45662;-57
2021/09/09 09:36:17;;;;;;;;;31.75;27.50;;;;;24.30;79.05;100784.22;5080898;27;45267;-56
2021/09/09 09:38:43;;;;;;;;;35.00;29.50;;;;;24.37;79.09;100778.25;5080906;28;45436;-55
2021/09/09 09:41:09;;;;;;;;;34.00;30.75;;;;;24.47;78.18;100786.31;5080391;27;46190;-56
2021/09/09 09:43:34;;;;;;;;;33.00;27.75;;;;;24.59;78.09;100782.56;5078745;28;45346;-57
2021/09/09 09:46:01;;;;;;;;;44.00;34.00;;;;;24.74;78.03;100791.91;5080172;28;45353;-56
2021/09/09 09:48:33;;;;;;;;;25.50;21.50;;;;;24.84;77.38;100792.81;5080446;27;45259;-57
2021/09/09 09:50:58;;;;;;;;;28.50;25.50;;;;;24.87;77.29;100792.53;5080179;27;47179;-57
2021/09/09 09:53:24;;;;;;;;;30.75;27.75;;;;;24.90;77.37;100801.22;5080458;28;45599;-57
2021/09/09 09:55:50;;;;;;;;;22.50;20.50;;;;;24.95;77.53;100797.19;5080578;27;45443;-57
2021/09/09 09:58:16;;;;;;;;;43.00;30.75;;;;;25.03;77.11;100794.75;5079839;27;45667;-57
2021/09/09 10:00:42;;;;;;;;;28.50;24.75;;;;;25.20;76.41;100792.41;5079963;27;46672;-57
2021/09/09 10:03:08;;;;;;;;;28.25;27.25;;;;;25.34;76.64;100784.06;5079514;27;45480;-57
2021/09/09 10:05:37;;;;;;;;;34.25;29.25;;;;;25.50;75.98;100787.03;5079815;28;45496;-57
2021/09/09 10:08:04;;;;;;;;;28.25;22.75;;;;;25.68;75.76;100790.75;5079741;27;45342;-57
2021/09/09 10:10:30;;;;;;;;;26.75;24.75;;;;;25.86;74.96;100785.56;5079580;28;47875;-57
2021/09/09 10:12:56;;;;;;;;;35.75;27.75;;;;;26.08;74.59;100781.78;5079473;27;45333;-57
2021/09/09 10:15:23;;;;;;;;;26.00;24.25;;;;;26.26;73.84;100774.75;5080049;27;45406;-57
2021/09/09 10:17:52;;;;;;;;;39.50;28.25;;;;;26.50;72.76;100787.66;5079489;27;45311;-57
2021/09/09 10:20:32;;;;;;;;;29.25;25.50;;;;;26.44;71.73;100782.91;5095748;27;45501;-57
2021/09/09 10:23:03;;;;;;;;;25.50;21.25;;;;;26.48;71.83;100780.78;5077135;28;45244;-57
2021/09/09 10:25:53;;;;;;;;;30.25;26.75;;;;;26.59;71.09;100788.59;5079948;27;45424;-57
2021/09/09 10:28:38;;;;;;;;;26.50;26.25;;;;;26.64;71.45;100783.69;5079523;27;45244;-58
2021/09/09 10:31:05;;;;;;;;;30.25;25.75;;;;;26.71;70.53;100786.63;5076102;28;45251;-57
2021/09/09 10:33:31;;;;;;;;;28.50;24.75;;;;;26.84;69.20;100776.47;5079464;27;45563;-57
2021/09/09 10:35:57;;;;;;;;;31.00;27.75;;;;;26.96;69.19;100777.94;5079289;27;45186;-57
2021/09/09 10:38:23;;;;;;;;;30.00;25.25;;;;;27.11;69.23;100778.34;5079297;27;45516;-57
2021/09/09 10:40:48;;;;;;;;;25.75;25.50;;;;;27.26;68.62;100779.53;5078744;27;46419;-57
2021/09/09 10:43:23;;;;;;;;;20.25;16.25;;;;;27.36;68.08;100785.66;5078798;28;45410;-57
2021/09/09 10:45:48;;;;;;;;;25.00;23.00;;;;;27.42;68.13;100778.84;5079084;27;45462;-57
2021/09/09 10:48:14;;;;;;;;;21.50;20.25;;;;;27.57;67.57;100778.19;5079513;27;45313;-55
2021/09/09 10:50:39;;;;;;;;;27.67;22.67;;;;;27.76;65.86;100779.94;5078875;28;46692;-56
2021/09/09 10:53:10;;;;;;;;;21.25;18.75;;;;;28.04;61.76;100775.34;5079026;27;45448;-57
2021/09/09 10:55:38;;;;;;;;;19.25;17.00;;;;;28.15;62.80;100784.94;5079531;27;45260;-57
2021/09/09 10:58:14;;;;;;;;;28.25;20.50;;;;;28.20;61.69;100782.63;5079245;28;45488;-57
2021/09/09 11:01:05;;;;;;;;;27.25;20.50;;;;;27.90;60.48;100781.22;5078538;27;46515;-56
2021/09/09 11:03:43;;;;;;;;;21.75;16.75;;;;;27.72;62.07;100778.56;5069275;28;45275;-57
2021/09/09 11:06:12;;;;;;;;;20.00;17.50;;;;;27.78;61.22;100782.44;5071551;27;45344;-57